createdAt,value
2019-04-28T00:04:18.362Z,2.00
2019-04-28T00:09:23.135Z,2.00
2019-04-28T00:14:27.091Z,2.00
2019-04-28T00:19:31.171Z,1.00
2019-04-28T00:24:42.211Z,2.00
2019-04-28T00:29:46.399Z,2.00
2019-04-28T00:34:51.156Z,1.75
2019-04-28T00:39:55.191Z,1.00
2019-04-28T00:44:59.009Z,1.50
2019-04-28T00:50:02.966Z,2.25
2019-04-28T00:55:06.841Z,1.00
2019-04-28T01:00:11.557Z,0.20
2019-04-28T01:05:15.556Z,1.75
2019-04-28T01:10:21.061Z,1.00
2019-04-28T01:15:39.658Z,1.80
2019-04-28T01:20:43.848Z,1.00
2019-04-28T01:25:47.675Z,1.00
2019-04-28T01:31:13.278Z,2.00
2019-04-28T01:36:17.143Z,2.00
2019-04-28T01:41:20.922Z,1.00
2019-04-28T01:46:24.681Z,0.00
2019-04-28T01:51:30.370Z,1.50
2019-04-28T01:56:33.957Z,2.00
2019-04-28T02:01:37.789Z,1.00
2019-04-28T02:06:41.544Z,1.00
2019-04-28T02:11:45.318Z,1.00
2019-04-28T02:16:50.385Z,1.00
2019-04-28T02:22:10.584Z,0.25
2019-04-28T02:27:14.421Z,1.75
2019-04-28T02:32:21.246Z,1.00
2019-04-28T02:37:23.854Z,1.00
2019-04-28T02:42:30.657Z,1.00
2019-04-28T02:47:34.170Z,0.60
2019-04-28T02:52:56.297Z,2.00
2019-04-28T02:58:01.409Z,1.00
2019-04-28T03:03:05.501Z,1.75
2019-04-28T03:08:11.109Z,1.00
2019-04-28T03:13:14.836Z,1.00
2019-04-28T03:18:21.210Z,1.00
2019-04-28T03:23:24.142Z,0.00
2019-04-28T03:28:35.794Z,1.75
2019-04-28T03:33:47.329Z,1.00
2019-04-28T03:38:45.266Z,1.00
2019-04-28T03:43:51.277Z,1.00
2019-04-28T03:48:54.518Z,1.00
2019-04-28T03:54:00.639Z,1.00
2019-04-28T03:59:03.783Z,1.50
2019-04-28T04:04:07.541Z,0.25
2019-04-28T04:09:11.755Z,0.40
2019-04-28T04:14:34.505Z,1.00
2019-04-28T04:19:40.772Z,5.75
2019-04-28T04:24:43.823Z,7.25
2019-04-28T04:29:47.600Z,7.00
2019-04-28T04:34:51.375Z,11.00
2019-04-28T04:39:55.145Z,10.75
2019-04-28T04:45:00.523Z,8.25
2019-04-28T04:50:04.766Z,9.25
2019-04-28T04:55:11.041Z,12.80
2019-04-28T05:00:20.913Z,9.40
2019-04-28T05:05:30.339Z,9.00
2019-04-28T05:10:34.119Z,9.25
2019-04-28T05:15:37.893Z,13.00
2019-04-28T05:20:41.668Z,11.00
2019-04-28T05:25:45.440Z,10.25
2019-04-28T05:30:50.266Z,11.00
2019-04-28T05:35:54.507Z,9.00
2019-04-28T05:41:02.321Z,6.80
2019-04-28T05:46:03.949Z,5.80
2019-04-28T05:51:09.472Z,5.00
2019-04-28T05:56:20.353Z,4.80
2019-04-28T06:01:46.480Z,3.75
2019-04-28T06:06:52.167Z,3.20
2019-04-28T06:11:55.919Z,3.00
2019-04-28T06:17:00.514Z,3.00
2019-04-28T06:22:04.434Z,3.75
2019-04-28T06:27:08.193Z,3.40
2019-04-28T06:32:11.975Z,2.00
2019-04-28T06:37:15.755Z,3.00
2019-04-28T06:42:19.566Z,4.00
2019-04-28T06:47:23.303Z,3.00
2019-04-28T06:52:27.068Z,3.00
2019-04-28T06:57:30.804Z,3.00
2019-04-28T07:02:34.623Z,9.50
2019-04-28T07:07:38.398Z,8.80
2019-04-28T07:12:42.238Z,5.00
2019-04-28T07:17:46.007Z,4.60
2019-04-28T07:22:49.795Z,3.25
2019-04-28T07:27:53.578Z,3.00
2019-04-28T07:32:57.692Z,5.00
2019-04-28T07:38:01.475Z,3.50
2019-04-28T07:43:05.244Z,4.00
2019-04-28T07:48:17.190Z,5.40
2019-04-28T07:53:29.075Z,3.00
2019-04-28T07:58:32.844Z,2.75
2019-04-28T08:03:48.845Z,3.00
2019-04-28T08:08:42.185Z,2.75
2019-04-28T08:13:46.074Z,3.00
2019-04-28T08:18:49.859Z,2.00
2019-04-28T08:23:53.635Z,3.00
2019-04-28T08:28:57.586Z,3.00
2019-04-28T08:34:04.109Z,2.60
2019-04-28T08:39:07.956Z,3.00
2019-04-28T08:44:11.827Z,2.00
2019-04-28T08:49:15.695Z,1.50
2019-04-28T08:54:19.477Z,2.00
2019-04-28T08:59:23.352Z,2.00
2019-04-28T09:04:27.167Z,2.00
2019-04-28T09:09:30.921Z,1.75
2019-04-28T09:14:34.776Z,2.00
2019-04-28T09:19:38.571Z,2.60
2019-04-28T09:24:42.413Z,2.00
2019-04-28T09:29:46.216Z,2.00
2019-04-28T09:34:50.048Z,7.00
2019-04-28T09:39:59.226Z,5.00
2019-04-28T09:45:36.543Z,4.00
2019-04-28T09:50:40.292Z,3.00
2019-04-28T09:55:44.095Z,3.00
2019-04-28T10:00:47.963Z,3.40
2019-04-28T10:05:51.745Z,3.00
2019-04-28T10:10:55.555Z,2.75
2019-04-28T10:15:59.341Z,2.50
2019-04-28T10:21:03.149Z,3.00
2019-04-28T10:26:07.108Z,2.25
2019-04-28T10:31:13.313Z,2.00
2019-04-28T10:36:16.981Z,3.00
2019-04-28T10:41:36.591Z,2.60
2019-04-28T10:46:40.460Z,3.20
2019-04-28T10:51:44.355Z,3.25
2019-04-28T10:56:48.119Z,4.00
2019-04-28T11:01:51.873Z,4.75
2019-04-28T11:06:55.901Z,5.50
2019-04-28T11:12:00.129Z,6.00
2019-04-28T11:17:03.911Z,2.00
2019-04-28T11:22:07.694Z,2.00
2019-04-28T11:27:11.684Z,2.00
2019-04-28T11:32:16.677Z,2.00
2019-04-28T11:37:20.583Z,3.75
2019-04-28T11:42:24.350Z,2.40
2019-04-28T11:47:28.156Z,2.50
2019-04-28T11:52:32.232Z,2.00
2019-04-28T11:57:36.046Z,3.25
2019-04-28T12:02:39.824Z,3.00
2019-04-28T12:07:43.639Z,3.00
2019-04-28T12:13:03.407Z,3.25
2019-04-28T12:18:25.044Z,3.00
2019-04-28T12:28:45.453Z,3.00
2019-04-28T12:33:49.283Z,3.80
2019-04-28T12:38:53.077Z,3.50
2019-04-28T12:43:56.890Z,3.25
2019-04-28T12:49:04.143Z,2.50
2019-04-28T12:54:09.615Z,2.00
2019-04-28T12:59:18.713Z,2.75
2019-04-28T13:04:50.231Z,3.00
2019-04-28T13:09:54.088Z,2.50
2019-04-28T13:14:57.934Z,3.00
2019-04-28T13:20:01.748Z,3.00
2019-04-28T13:25:06.699Z,4.00
2019-04-28T13:30:10.491Z,3.00
2019-04-28T13:35:14.315Z,3.75
2019-04-28T13:40:24.778Z,3.00
2019-04-28T13:45:28.750Z,2.00
2019-04-28T13:50:37.082Z,3.20
2019-04-28T13:56:04.122Z,3.00
2019-04-28T14:01:25.592Z,3.00
2019-04-28T14:06:30.608Z,4.00
2019-04-28T14:11:34.424Z,3.50
2019-04-28T14:16:38.277Z,3.00
2019-04-28T14:21:42.087Z,2.00
2019-04-28T14:26:46.071Z,3.00
2019-04-28T14:31:49.868Z,3.80
2019-04-28T14:36:53.736Z,2.00
2019-04-28T14:41:57.550Z,3.50
2019-04-28T14:47:01.331Z,4.20
2019-04-28T14:52:05.140Z,5.20
2019-04-28T14:57:08.929Z,3.00
2019-04-28T15:02:28.903Z,4.00
2019-04-28T15:07:55.925Z,4.00
2019-04-28T15:13:00.153Z,3.00
2019-04-28T15:18:04.082Z,3.25
2019-04-28T15:23:07.880Z,3.40
2019-04-28T15:28:11.746Z,2.75
2019-04-28T15:33:15.674Z,3.00
2019-04-28T15:38:19.547Z,3.50
2019-04-28T15:43:23.400Z,4.00
2019-04-28T15:48:27.456Z,5.00
2019-04-28T15:53:32.396Z,9.75
2019-04-28T15:58:37.400Z,9.25
2019-04-28T16:03:41.209Z,8.50
2019-04-28T16:08:44.979Z,6.75
2019-04-28T16:13:48.772Z,6.00
2019-04-28T16:18:52.672Z,5.80
2019-04-28T16:23:56.459Z,4.75
2019-04-28T16:29:00.264Z,4.20
2019-04-28T16:34:04.067Z,3.25
2019-04-28T16:39:08.139Z,3.50
2019-04-28T16:44:11.964Z,5.00
2019-04-28T16:49:15.776Z,5.50
2019-04-28T16:54:19.551Z,4.25
2019-04-28T16:59:49.751Z,2.60
2019-04-28T17:04:53.535Z,3.50
2019-04-28T17:09:57.311Z,4.20
2019-04-28T17:15:01.126Z,4.00
2019-04-28T17:20:05.454Z,4.50
2019-04-28T17:25:09.264Z,5.00
2019-04-28T17:30:13.635Z,4.00
2019-04-28T17:35:17.712Z,4.40
2019-04-28T17:40:22.135Z,4.60
2019-04-28T17:45:26.174Z,4.00
2019-04-28T17:50:31.722Z,5.00
2019-04-28T17:55:35.595Z,7.00
2019-04-28T18:00:57.546Z,4.00
2019-04-28T18:06:18.160Z,4.50
2019-04-28T18:11:18.716Z,4.40
2019-04-28T18:16:50.386Z,4.00
2019-04-28T18:21:54.240Z,6.20
2019-04-28T18:26:58.127Z,4.00
2019-04-28T18:32:27.006Z,5.50
2019-04-28T18:37:49.783Z,5.00
2019-04-28T18:43:08.898Z,8.00
2019-04-28T18:48:12.733Z,5.00
2019-04-28T18:53:16.489Z,4.40
2019-04-28T18:58:20.262Z,5.00
2019-04-28T19:03:24.120Z,4.80
2019-04-28T19:08:49.354Z,4.00
2019-04-28T19:13:52.314Z,4.00
2019-04-28T19:18:58.701Z,5.00
2019-04-28T19:24:02.517Z,4.50
2019-04-28T19:29:06.379Z,4.60
2019-04-28T19:34:10.196Z,4.00
2019-04-28T19:39:14.040Z,3.50
2019-04-28T19:44:18.022Z,4.00
2019-04-28T19:49:21.980Z,4.00
2019-04-28T19:54:29.800Z,4.50
2019-04-28T19:59:50.928Z,3.75
2019-04-28T20:04:54.819Z,5.00
2019-04-28T20:09:58.637Z,3.75
2019-04-28T20:15:02.597Z,5.40
2019-04-28T20:20:06.485Z,4.00
2019-04-28T20:25:10.606Z,4.00
2019-04-28T20:30:14.379Z,3.00
2019-04-28T20:35:22.503Z,4.00
2019-04-28T20:40:35.470Z,3.25
2019-04-28T20:45:39.332Z,4.20
2019-04-28T20:50:43.132Z,5.25
2019-04-28T20:55:46.999Z,4.00
2019-04-28T21:00:50.824Z,4.00
2019-04-28T21:05:54.583Z,3.25
2019-04-28T21:10:58.376Z,3.40
2019-04-28T21:16:02.161Z,4.00
2019-04-28T21:21:06.027Z,3.20
2019-04-28T21:26:09.796Z,3.50
2019-04-28T21:31:13.672Z,4.00
2019-04-28T21:36:17.450Z,3.50
2019-04-28T21:41:21.294Z,3.25
2019-04-28T21:46:35.646Z,3.25
2019-04-28T21:51:39.444Z,4.00
2019-04-28T21:56:43.242Z,4.00
2019-04-28T22:01:47.397Z,3.00
2019-04-28T22:06:51.184Z,3.00
2019-04-28T22:11:55.075Z,3.00
2019-04-28T22:16:58.862Z,2.50
2019-04-28T22:22:02.675Z,4.00
2019-04-28T22:27:07.323Z,2.50
2019-04-28T22:32:11.216Z,3.60
2019-04-28T22:37:15.122Z,4.00
2019-04-28T22:42:18.909Z,3.00
2019-04-28T22:47:22.760Z,3.00
2019-04-28T22:52:26.770Z,3.50
2019-04-28T22:57:43.475Z,2.75
2019-04-28T23:02:47.349Z,3.50
2019-04-28T23:07:51.573Z,3.00
2019-04-28T23:12:55.401Z,3.00
2019-04-28T23:17:59.259Z,2.75
2019-04-28T23:23:05.086Z,3.00
2019-04-28T23:28:08.847Z,3.00
2019-04-28T23:33:12.668Z,3.00
2019-04-28T23:38:16.541Z,3.00
2019-04-28T23:43:21.303Z,3.00
2019-04-28T23:48:25.229Z,2.40
2019-04-28T23:53:46.818Z,3.20
2019-04-28T23:58:50.681Z,3.75
